createdAt,value
2017-08-03T00:02:20.061Z,28.97
2017-08-03T00:04:48.967Z,29.58
2017-08-03T00:07:16.781Z,30.93
2017-08-03T00:09:44.852Z,31.53
2017-08-03T00:12:11.941Z,32.10
2017-08-03T00:14:39.984Z,34.03
2017-08-03T00:17:09.017Z,31.90
2017-08-03T00:19:36.148Z,34.05
2017-08-03T00:22:03.064Z,31.35
2017-08-03T00:24:32.068Z,32.37
2017-08-03T00:26:59.386Z,32.30
2017-08-03T00:29:27.044Z,30.33
2017-08-03T00:31:57.280Z,30.25
2017-08-03T00:34:24.318Z,26.85
2017-08-03T00:36:51.996Z,28.62
2017-08-03T00:39:20.029Z,28.10
2017-08-03T00:41:49.152Z,28.95
2017-08-03T00:44:17.818Z,29.57
2017-08-03T00:46:45.445Z,23.73
2017-08-03T00:49:12.383Z,28.47
2017-08-03T00:54:12.337Z,24.87
2017-08-03T00:56:40.433Z,23.92
2017-08-03T00:59:08.157Z,25.02
2017-08-03T01:01:35.573Z,25.48
2017-08-03T01:04:04.110Z,25.87
2017-08-03T01:06:35.082Z,27.48
2017-08-03T01:09:04.296Z,26.27
2017-08-03T01:11:31.464Z,26.25
2017-08-03T01:16:31.429Z,24.88
2017-08-03T01:19:02.371Z,28.17
2017-08-03T01:21:29.536Z,27.48
2017-08-03T01:23:57.332Z,28.05
2017-08-03T01:26:25.935Z,26.98
2017-08-03T01:28:53.204Z,25.50
2017-08-03T01:31:21.920Z,25.43
2017-08-03T01:33:50.127Z,22.73
2017-08-03T01:36:18.743Z,23.77
2017-08-03T01:38:48.324Z,19.68
2017-08-03T01:41:16.328Z,21.27
2017-08-03T01:43:44.149Z,22.00
2017-08-03T01:46:11.040Z,21.23
2017-08-03T01:48:38.397Z,18.68
2017-08-03T01:51:06.087Z,22.23
2017-08-03T01:53:33.096Z,18.67
2017-08-03T01:56:01.405Z,19.83
2017-08-03T01:58:30.155Z,19.68
2017-08-03T02:00:57.854Z,18.03
2017-08-03T02:03:28.261Z,19.65
2017-08-03T02:05:55.458Z,21.22
2017-08-03T02:08:23.381Z,18.40
2017-08-03T02:10:51.433Z,21.87
2017-08-03T02:13:20.393Z,21.40
2017-08-03T02:15:48.432Z,22.12
2017-08-03T02:18:18.290Z,23.58
2017-08-03T02:20:45.858Z,24.25
2017-08-03T02:23:13.093Z,21.83
2017-08-03T02:25:40.169Z,22.22
2017-08-03T02:28:08.260Z,21.68
2017-08-03T02:30:36.038Z,26.57
2017-08-03T02:33:05.052Z,24.07
2017-08-03T02:35:32.253Z,24.43
2017-08-03T02:37:59.704Z,24.98
2017-08-03T02:40:27.509Z,22.45
2017-08-03T02:42:56.062Z,24.13
2017-08-03T02:45:23.834Z,25.17
2017-08-03T02:47:51.021Z,23.97
2017-08-03T02:50:18.782Z,27.22
2017-08-03T02:52:45.998Z,22.98
2017-08-03T02:55:15.992Z,24.42
2017-08-03T02:57:46.059Z,24.85
2017-08-03T03:00:12.899Z,25.52
2017-08-03T03:02:40.044Z,26.48
2017-08-03T03:05:07.678Z,25.68
2017-08-03T03:07:36.938Z,23.07
2017-08-03T03:10:06.467Z,26.25
2017-08-03T03:12:34.941Z,22.75
2017-08-03T03:15:03.823Z,25.93
2017-08-03T03:17:31.184Z,27.15
2017-08-03T03:19:58.935Z,25.47
2017-08-03T03:22:27.453Z,26.65
2017-08-03T03:24:54.850Z,27.65
2017-08-03T03:27:21.807Z,24.17
2017-08-03T03:29:49.669Z,26.52
2017-08-03T03:32:17.321Z,27.35
2017-08-03T03:34:45.450Z,25.97
2017-08-03T03:37:13.948Z,27.08
2017-08-03T03:39:42.592Z,26.72
2017-08-03T03:42:12.248Z,28.43
2017-08-03T03:44:39.953Z,27.88
2017-08-03T03:47:08.658Z,29.67
2017-08-03T03:49:35.793Z,28.42
2017-08-03T03:52:02.897Z,24.47
2017-08-03T03:54:32.928Z,26.73
2017-08-03T03:57:00.790Z,24.53
2017-08-03T03:59:31.195Z,26.67
2017-08-03T04:01:59.927Z,27.62
2017-08-03T04:04:27.955Z,29.77
2017-08-03T04:06:57.392Z,26.60
2017-08-03T04:09:27.430Z,28.58
2017-08-03T04:11:56.663Z,29.35
2017-08-03T04:14:26.020Z,27.55
2017-08-03T04:16:53.978Z,29.22
2017-08-03T04:19:24.417Z,24.93
2017-08-03T04:21:52.512Z,25.65
2017-08-03T04:24:22.225Z,28.03
2017-08-03T04:26:49.511Z,28.45
2017-08-03T04:29:17.519Z,26.35
2017-08-03T04:31:47.595Z,25.50
2017-08-03T04:34:15.583Z,24.92
2017-08-03T04:36:43.794Z,26.58
2017-08-03T04:39:14.646Z,25.07
2017-08-03T04:44:21.460Z,23.10
2017-08-03T04:46:50.220Z,23.17
2017-08-03T04:49:20.669Z,22.90
2017-08-03T04:51:48.020Z,21.77
2017-08-03T04:54:17.193Z,20.75
2017-08-03T04:56:46.120Z,23.83
2017-08-03T04:59:15.505Z,21.58
2017-08-03T05:01:43.842Z,22.42
2017-08-03T05:04:13.450Z,21.98
2017-08-03T05:06:41.722Z,20.73
2017-08-03T05:09:09.588Z,20.90
2017-08-03T05:11:38.585Z,19.15
2017-08-03T05:14:08.145Z,21.03
2017-08-03T05:16:35.875Z,19.25
2017-08-03T05:19:03.515Z,18.00
2017-08-03T05:21:30.631Z,20.97
2017-08-03T05:23:57.815Z,18.55
2017-08-03T05:26:24.892Z,18.75
2017-08-03T05:28:52.019Z,18.13
2017-08-03T05:31:19.143Z,18.02
2017-08-03T05:33:46.169Z,18.87
2017-08-03T05:36:13.212Z,16.42
2017-08-03T05:38:40.501Z,16.37
2017-08-03T05:41:07.345Z,16.55
2017-08-03T05:43:34.498Z,17.00
2017-08-03T05:46:01.666Z,17.65
2017-08-03T05:48:29.201Z,17.72
2017-08-03T05:50:56.375Z,17.60
2017-08-03T05:53:23.534Z,15.13
2017-08-03T05:55:50.656Z,17.72
2017-08-03T05:58:17.781Z,17.72
2017-08-03T06:00:45.421Z,17.78
2017-08-03T06:03:12.656Z,17.97
2017-08-03T06:05:39.852Z,16.78
2017-08-03T06:08:07.064Z,14.90
2017-08-03T06:10:34.309Z,16.60
2017-08-03T06:13:01.575Z,15.95
2017-08-03T06:15:29.131Z,16.43
2017-08-03T06:17:56.318Z,15.83
2017-08-03T06:20:23.410Z,14.70
2017-08-03T06:22:50.573Z,15.15
2017-08-03T06:25:18.145Z,16.47
2017-08-03T06:27:45.266Z,14.88
2017-08-03T06:30:12.494Z,14.10
2017-08-03T06:32:39.550Z,16.35
2017-08-03T06:35:07.184Z,11.75
2017-08-03T06:37:34.325Z,14.15
2017-08-03T06:40:01.115Z,13.42
2017-08-03T06:42:28.284Z,13.67
2017-08-03T06:44:57.478Z,13.45
2017-08-03T06:47:26.253Z,10.75
2017-08-03T06:49:53.196Z,12.33
2017-08-03T06:52:21.045Z,11.62
2017-08-03T06:54:49.030Z,14.27
2017-08-03T06:59:47.279Z,13.80
2017-08-03T07:02:14.892Z,13.48
2017-08-03T07:04:42.042Z,12.67
2017-08-03T07:07:09.218Z,14.17
2017-08-03T07:09:36.481Z,12.42
2017-08-03T07:12:03.636Z,12.78
2017-08-03T07:14:30.848Z,12.73
2017-08-03T07:16:58.528Z,13.32
2017-08-03T07:19:26.497Z,11.90
2017-08-03T07:21:53.616Z,11.87
2017-08-03T07:24:20.786Z,12.82
2017-08-03T07:26:47.597Z,13.28
2017-08-03T07:29:14.894Z,12.43
2017-08-03T07:31:42.011Z,13.15
2017-08-03T07:34:09.218Z,12.32
2017-08-03T07:36:36.478Z,12.57
2017-08-03T07:39:05.288Z,13.02
2017-08-03T07:41:32.504Z,11.13
2017-08-03T07:43:59.755Z,13.28
2017-08-03T07:46:28.271Z,13.68
2017-08-03T07:48:55.408Z,12.33
2017-08-03T07:51:23.144Z,12.02
2017-08-03T07:53:50.086Z,13.73
2017-08-03T07:56:17.231Z,11.00
2017-08-03T07:58:44.488Z,10.98
2017-08-03T08:01:11.657Z,9.77
2017-08-03T08:03:38.950Z,10.12
2017-08-03T08:06:06.155Z,9.60
2017-08-03T08:08:33.263Z,9.44
2017-08-03T08:11:00.309Z,9.28
2017-08-03T08:13:27.375Z,8.94
2017-08-03T08:15:54.500Z,8.02
2017-08-03T08:18:21.284Z,7.00
2017-08-03T08:20:48.436Z,7.14
2017-08-03T08:23:15.574Z,8.36
2017-08-03T08:25:42.710Z,7.28
2017-08-03T08:28:09.773Z,7.02
2017-08-03T08:30:36.925Z,7.12
2017-08-03T08:33:03.792Z,7.56
2017-08-03T08:35:30.669Z,6.28
2017-08-03T08:37:58.576Z,6.10
2017-08-03T08:40:25.743Z,6.34
2017-08-03T08:42:52.910Z,6.74
2017-08-03T08:45:20.054Z,7.50
2017-08-03T08:47:47.142Z,6.42
2017-08-03T08:50:14.206Z,5.98
2017-08-03T08:52:41.344Z,6.70
2017-08-03T08:55:08.524Z,6.52
2017-08-03T08:57:35.351Z,7.34
2017-08-03T09:00:05.262Z,6.94
2017-08-03T09:02:32.864Z,6.83
2017-08-03T09:05:00.053Z,6.30
2017-08-03T09:07:27.652Z,6.34
2017-08-03T09:09:55.314Z,5.92
2017-08-03T09:12:22.486Z,6.08
2017-08-03T09:14:49.662Z,6.60
2017-08-03T09:17:17.954Z,6.04
2017-08-03T09:19:45.237Z,6.40
2017-08-03T09:22:13.174Z,6.34
2017-08-03T09:24:41.171Z,5.58
2017-08-03T09:27:09.962Z,5.40
2017-08-03T09:29:37.909Z,4.90
2017-08-03T09:32:05.186Z,4.80
2017-08-03T09:34:35.459Z,5.12
2017-08-03T09:37:02.743Z,3.60
2017-08-03T09:39:35.244Z,4.40
2017-08-03T09:42:02.628Z,3.30
2017-08-03T09:44:29.692Z,3.48
2017-08-03T09:47:03.563Z,3.34
2017-08-03T09:49:31.753Z,3.10
2017-08-03T09:51:59.510Z,3.30
2017-08-03T09:54:28.363Z,3.38
2017-08-03T09:57:03.270Z,3.96
2017-08-03T09:59:30.322Z,3.66
2017-08-03T10:01:59.438Z,3.70
2017-08-03T10:04:32.268Z,3.86
2017-08-03T10:07:07.338Z,3.00
2017-08-03T10:09:36.542Z,3.10
2017-08-03T10:12:03.510Z,3.12
2017-08-03T10:14:34.897Z,3.38
2017-08-03T10:17:09.802Z,3.20
2017-08-03T10:22:28.503Z,3.48
2017-08-03T10:24:57.445Z,3.64
2017-08-03T10:30:09.884Z,3.56
2017-08-03T10:32:37.083Z,3.36
2017-08-03T10:35:06.591Z,3.08
2017-08-03T10:40:21.033Z,2.92
2017-08-03T10:48:19.807Z,2.50
2017-08-03T10:50:48.746Z,2.86
2017-08-03T10:53:26.026Z,2.94
2017-08-03T10:55:55.234Z,2.60
2017-08-03T10:58:24.106Z,2.56
2017-08-03T11:00:54.535Z,2.26
2017-08-03T11:03:27.114Z,2.52
2017-08-03T11:05:54.778Z,2.60
2017-08-03T11:08:22.407Z,2.22
2017-08-03T11:10:50.531Z,2.72
2017-08-03T11:16:03.890Z,2.64
2017-08-03T11:18:32.870Z,3.08
2017-08-03T11:23:47.670Z,2.68
2017-08-03T11:26:23.165Z,2.40
2017-08-03T11:28:51.830Z,2.32
2017-08-03T11:34:13.368Z,2.42
2017-08-03T11:36:40.956Z,3.62
2017-08-03T11:39:26.213Z,2.88
2017-08-03T11:42:00.211Z,2.60
2017-08-03T11:44:29.819Z,2.32
2017-08-03T11:52:28.837Z,3.12
2017-08-03T11:54:59.566Z,3.04
2017-08-03T11:57:28.451Z,3.32
2017-08-03T11:59:56.958Z,3.66
2017-08-03T12:02:25.578Z,3.16
2017-08-03T12:07:33.730Z,3.28
2017-08-03T12:12:52.264Z,3.02
2017-08-03T12:15:19.091Z,3.40
2017-08-03T12:17:53.460Z,4.12
2017-08-03T12:20:21.896Z,3.02
2017-08-03T12:22:58.063Z,3.40
2017-08-03T12:25:30.837Z,3.02
2017-08-03T12:30:49.218Z,2.90
2017-08-03T12:33:21.987Z,3.50
2017-08-03T12:38:37.818Z,2.76
2017-08-03T12:41:05.610Z,2.82
2017-08-03T12:46:19.664Z,2.40
